sensor_id;sensor_type;location;lat;lon;timestamp;P1;durP1;ratioP1;P2;durP2;ratioP2
23129;SDS011;11734;51.046;13.778;2023-05-20T00:00:02;16.23;;;10.50;;
23129;SDS011;11734;51.046;13.778;2023-05-20T00:02:50;12.47;;;9.80;;
23129;SDS011;11734;51.046;13.778;2023-05-20T00:05:17;13.57;;;9.97;;
23129;SDS011;11734;51.046;13.778;2023-05-20T00:07:43;13.60;;;10.60;;
23129;SDS011;11734;51.046;13.778;2023-05-20T00:10:10;14.07;;;10.20;;
23129;SDS011;11734;51.046;13.778;2023-05-20T00:12:37;14.53;;;10.63;;
23129;SDS011;11734;51.046;13.778;2023-05-20T00:15:05;13.23;;;9.30;;
23129;SDS011;11734;51.046;13.778;2023-05-20T00:17:32;13.17;;;9.67;;
23129;SDS011;11734;51.046;13.778;2023-05-20T00:19:59;12.47;;;10.33;;
23129;SDS011;11734;51.046;13.778;2023-05-20T00:22:26;12.97;;;9.43;;
23129;SDS011;11734;51.046;13.778;2023-05-20T00:24:53;12.60;;;10.13;;
23129;SDS011;11734;51.046;13.778;2023-05-20T00:27:21;12.40;;;9.77;;
23129;SDS011;11734;51.046;13.778;2023-05-20T00:29:48;14.43;;;10.43;;
23129;SDS011;11734;51.046;13.778;2023-05-20T00:32:15;13.03;;;10.70;;
23129;SDS011;11734;51.046;13.778;2023-05-20T00:34:42;12.37;;;9.83;;
23129;SDS011;11734;51.046;13.778;2023-05-20T00:37:09;13.37;;;10.23;;
23129;SDS011;11734;51.046;13.778;2023-05-20T00:39:36;11.90;;;9.50;;
23129;SDS011;11734;51.046;13.778;2023-05-20T00:42:03;13.30;;;9.33;;
23129;SDS011;11734;51.046;13.778;2023-05-20T00:44:30;15.27;;;9.83;;
23129;SDS011;11734;51.046;13.778;2023-05-20T00:46:57;13.57;;;10.30;;
23129;SDS011;11734;51.046;13.778;2023-05-20T00:49:25;13.47;;;10.13;;
23129;SDS011;11734;51.046;13.778;2023-05-20T00:51:52;12.83;;;9.70;;
23129;SDS011;11734;51.046;13.778;2023-05-20T00:54:18;12.83;;;10.17;;
23129;SDS011;11734;51.046;13.778;2023-05-20T00:56:46;13.33;;;10.30;;
23129;SDS011;11734;51.046;13.778;2023-05-20T00:59:13;14.50;;;10.27;;
23129;SDS011;11734;51.046;13.778;2023-05-20T01:01:41;13.17;;;10.50;;
23129;SDS011;11734;51.046;13.778;2023-05-20T01:04:08;13.60;;;9.83;;
23129;SDS011;11734;51.046;13.778;2023-05-20T01:06:35;12.70;;;9.27;;
23129;SDS011;11734;51.046;13.778;2023-05-20T01:09:03;14.13;;;9.87;;
23129;SDS011;11734;51.046;13.778;2023-05-20T01:11:33;15.20;;;10.30;;
23129;SDS011;11734;51.046;13.778;2023-05-20T01:14:05;12.70;;;10.13;;
23129;SDS011;11734;51.046;13.778;2023-05-20T01:16:34;15.50;;;10.43;;
23129;SDS011;11734;51.046;13.778;2023-05-20T01:19:02;15.73;;;10.77;;
23129;SDS011;11734;51.046;13.778;2023-05-20T01:21:33;13.37;;;10.67;;
23129;SDS011;11734;51.046;13.778;2023-05-20T01:24:01;14.40;;;10.50;;
23129;SDS011;11734;51.046;13.778;2023-05-20T01:26:31;12.70;;;9.87;;
23129;SDS011;11734;51.046;13.778;2023-05-20T01:28:58;14.23;;;10.93;;
23129;SDS011;11734;51.046;13.778;2023-05-20T01:31:30;14.70;;;10.77;;
23129;SDS011;11734;51.046;13.778;2023-05-20T01:34:02;15.30;;;10.63;;
23129;SDS011;11734;51.046;13.778;2023-05-20T01:36:30;14.30;;;10.23;;
23129;SDS011;11734;51.046;13.778;2023-05-20T01:38:58;17.60;;;11.57;;
23129;SDS011;11734;51.046;13.778;2023-05-20T01:41:26;16.20;;;11.27;;
23129;SDS011;11734;51.046;13.778;2023-05-20T01:43:55;14.17;;;10.43;;
23129;SDS011;11734;51.046;13.778;2023-05-20T01:46:22;15.57;;;10.60;;
23129;SDS011;11734;51.046;13.778;2023-05-20T01:48:51;14.03;;;11.10;;
23129;SDS011;11734;51.046;13.778;2023-05-20T01:51:18;15.63;;;11.20;;
23129;SDS011;11734;51.046;13.778;2023-05-20T01:53:45;16.90;;;10.57;;
23129;SDS011;11734;51.046;13.778;2023-05-20T01:56:12;15.17;;;10.47;;
23129;SDS011;11734;51.046;13.778;2023-05-20T01:58:38;15.37;;;10.43;;
23129;SDS011;11734;51.046;13.778;2023-05-20T02:01:06;14.63;;;11.20;;
23129;SDS011;11734;51.046;13.778;2023-05-20T02:03:33;15.23;;;10.63;;
23129;SDS011;11734;51.046;13.778;2023-05-20T02:06:00;14.87;;;10.50;;
23129;SDS011;11734;51.046;13.778;2023-05-20T02:08:27;15.90;;;10.97;;
23129;SDS011;11734;51.046;13.778;2023-05-20T02:10:54;15.13;;;10.20;;
23129;SDS011;11734;51.046;13.778;2023-05-20T02:13:21;13.57;;;10.33;;
23129;SDS011;11734;51.046;13.778;2023-05-20T02:15:48;15.73;;;10.87;;
23129;SDS011;11734;51.046;13.778;2023-05-20T02:18:16;13.40;;;10.07;;
23129;SDS011;11734;51.046;13.778;2023-05-20T02:20:44;12.30;;;9.63;;
23129;SDS011;11734;51.046;13.778;2023-05-20T02:23:11;16.07;;;10.57;;
23129;SDS011;11734;51.046;13.778;2023-05-20T02:25:38;14.23;;;10.33;;
23129;SDS011;11734;51.046;13.778;2023-05-20T02:28:08;15.70;;;11.27;;
23129;SDS011;11734;51.046;13.778;2023-05-20T02:30:38;12.37;;;9.97;;
23129;SDS011;11734;51.046;13.778;2023-05-20T02:33:05;14.07;;;10.50;;
23129;SDS011;11734;51.046;13.778;2023-05-20T02:35:33;14.50;;;10.87;;
23129;SDS011;11734;51.046;13.778;2023-05-20T02:38:00;14.67;;;10.93;;
23129;SDS011;11734;51.046;13.778;2023-05-20T02:40:27;14.63;;;10.33;;
23129;SDS011;11734;51.046;13.778;2023-05-20T02:42:54;16.23;;;10.63;;
23129;SDS011;11734;51.046;13.778;2023-05-20T02:45:21;16.87;;;11.50;;
23129;SDS011;11734;51.046;13.778;2023-05-20T02:47:48;15.70;;;11.10;;
23129;SDS011;11734;51.046;13.778;2023-05-20T02:50:15;18.27;;;11.87;;
23129;SDS011;11734;51.046;13.778;2023-05-20T02:52:43;15.57;;;10.53;;
23129;SDS011;11734;51.046;13.778;2023-05-20T02:55:11;17.67;;;13.00;;
23129;SDS011;11734;51.046;13.778;2023-05-20T02:57:38;13.83;;;10.50;;
23129;SDS011;11734;51.046;13.778;2023-05-20T03:00:07;16.73;;;12.57;;
23129;SDS011;11734;51.046;13.778;2023-05-20T03:02:38;15.33;;;11.53;;
23129;SDS011;11734;51.046;13.778;2023-05-20T03:05:06;16.03;;;11.37;;
23129;SDS011;11734;51.046;13.778;2023-05-20T03:07:34;15.53;;;11.80;;
23129;SDS011;11734;51.046;13.778;2023-05-20T03:10:04;16.50;;;11.57;;
23129;SDS011;11734;51.046;13.778;2023-05-20T03:12:32;14.77;;;11.90;;
23129;SDS011;11734;51.046;13.778;2023-05-20T03:14:59;15.10;;;11.20;;
23129;SDS011;11734;51.046;13.778;2023-05-20T03:17:27;15.43;;;10.73;;
23129;SDS011;11734;51.046;13.778;2023-05-20T03:19:55;14.90;;;11.13;;
23129;SDS011;11734;51.046;13.778;2023-05-20T03:22:22;17.80;;;11.90;;
23129;SDS011;11734;51.046;13.778;2023-05-20T03:24:49;14.97;;;11.13;;
23129;SDS011;11734;51.046;13.778;2023-05-20T03:27:18;14.27;;;10.90;;
23129;SDS011;11734;51.046;13.778;2023-05-20T03:29:46;14.93;;;10.77;;
23129;SDS011;11734;51.046;13.778;2023-05-20T03:32:14;14.97;;;11.03;;
23129;SDS011;11734;51.046;13.778;2023-05-20T03:34:41;16.30;;;12.00;;
23129;SDS011;11734;51.046;13.778;2023-05-20T03:37:08;16.70;;;11.20;;
23129;SDS011;11734;51.046;13.778;2023-05-20T03:39:35;15.80;;;11.23;;
23129;SDS011;11734;51.046;13.778;2023-05-20T03:42:02;15.90;;;11.27;;
23129;SDS011;11734;51.046;13.778;2023-05-20T03:44:30;16.87;;;11.00;;
23129;SDS011;11734;51.046;13.778;2023-05-20T03:46:57;15.90;;;12.37;;
23129;SDS011;11734;51.046;13.778;2023-05-20T03:49:24;17.33;;;12.10;;
23129;SDS011;11734;51.046;13.778;2023-05-20T03:51:52;13.83;;;11.00;;
23129;SDS011;11734;51.046;13.778;2023-05-20T03:54:19;15.20;;;11.93;;
23129;SDS011;11734;51.046;13.778;2023-05-20T03:56:49;16.87;;;12.03;;
23129;SDS011;11734;51.046;13.778;2023-05-20T03:59:17;17.47;;;12.93;;
23129;SDS011;11734;51.046;13.778;2023-05-20T04:01:44;15.17;;;11.20;;
23129;SDS011;11734;51.046;13.778;2023-05-20T04:04:11;15.93;;;12.43;;
23129;SDS011;11734;51.046;13.778;2023-05-20T04:06:38;17.13;;;12.47;;
23129;SDS011;11734;51.046;13.778;2023-05-20T04:09:05;15.87;;;11.03;;
23129;SDS011;11734;51.046;13.778;2023-05-20T04:11:32;16.03;;;11.37;;
23129;SDS011;11734;51.046;13.778;2023-05-20T04:13:59;16.83;;;11.60;;
23129;SDS011;11734;51.046;13.778;2023-05-20T04:16:27;15.80;;;11.73;;
23129;SDS011;11734;51.046;13.778;2023-05-20T04:18:57;15.50;;;11.83;;
23129;SDS011;11734;51.046;13.778;2023-05-20T04:21:25;16.83;;;12.33;;
23129;SDS011;11734;51.046;13.778;2023-05-20T04:23:52;15.73;;;11.97;;
23129;SDS011;11734;51.046;13.778;2023-05-20T04:26:19;16.23;;;12.00;;
23129;SDS011;11734;51.046;13.778;2023-05-20T04:28:46;16.13;;;11.80;;
23129;SDS011;11734;51.046;13.778;2023-05-20T04:31:16;16.40;;;11.50;;
23129;SDS011;11734;51.046;13.778;2023-05-20T04:34:01;15.33;;;11.07;;
23129;SDS011;11734;51.046;13.778;2023-05-20T04:36:29;15.57;;;11.37;;
23129;SDS011;11734;51.046;13.778;2023-05-20T04:38:58;16.93;;;11.43;;
23129;SDS011;11734;51.046;13.778;2023-05-20T04:41:27;16.07;;;11.77;;
23129;SDS011;11734;51.046;13.778;2023-05-20T04:43:54;17.93;;;11.77;;
23129;SDS011;11734;51.046;13.778;2023-05-20T04:46:26;18.07;;;11.53;;
23129;SDS011;11734;51.046;13.778;2023-05-20T04:48:53;15.23;;;11.23;;
23129;SDS011;11734;51.046;13.778;2023-05-20T04:51:20;16.97;;;11.77;;
23129;SDS011;11734;51.046;13.778;2023-05-20T04:53:50;14.90;;;11.10;;
23129;SDS011;11734;51.046;13.778;2023-05-20T04:56:17;15.93;;;10.10;;
23129;SDS011;11734;51.046;13.778;2023-05-20T04:58:44;18.70;;;12.10;;
23129;SDS011;11734;51.046;13.778;2023-05-20T05:01:12;15.97;;;12.17;;
23129;SDS011;11734;51.046;13.778;2023-05-20T05:03:40;15.70;;;11.43;;
23129;SDS011;11734;51.046;13.778;2023-05-20T05:06:08;17.37;;;12.33;;
23129;SDS011;11734;51.046;13.778;2023-05-20T05:08:35;16.90;;;11.87;;
23129;SDS011;11734;51.046;13.778;2023-05-20T05:11:06;16.27;;;11.13;;
23129;SDS011;11734;51.046;13.778;2023-05-20T05:13:33;16.50;;;11.60;;
23129;SDS011;11734;51.046;13.778;2023-05-20T05:16:01;16.70;;;12.33;;
23129;SDS011;11734;51.046;13.778;2023-05-20T05:18:30;17.03;;;12.17;;
23129;SDS011;11734;51.046;13.778;2023-05-20T05:20:59;18.40;;;11.97;;
23129;SDS011;11734;51.046;13.778;2023-05-20T05:23:27;14.80;;;11.37;;
23129;SDS011;11734;51.046;13.778;2023-05-20T05:25:54;17.83;;;12.23;;
23129;SDS011;11734;51.046;13.778;2023-05-20T05:28:22;17.70;;;12.80;;
23129;SDS011;11734;51.046;13.778;2023-05-20T05:30:50;16.67;;;12.50;;
23129;SDS011;11734;51.046;13.778;2023-05-20T05:33:19;17.80;;;12.57;;
23129;SDS011;11734;51.046;13.778;2023-05-20T05:35:46;16.67;;;11.93;;
23129;SDS011;11734;51.046;13.778;2023-05-20T05:38:13;17.23;;;11.97;;
23129;SDS011;11734;51.046;13.778;2023-05-20T05:40:40;20.83;;;13.77;;
23129;SDS011;11734;51.046;13.778;2023-05-20T05:43:07;19.33;;;12.53;;
23129;SDS011;11734;51.046;13.778;2023-05-20T05:45:35;19.90;;;14.03;;
23129;SDS011;11734;51.046;13.778;2023-05-20T05:48:02;17.00;;;12.07;;
23129;SDS011;11734;51.046;13.778;2023-05-20T05:50:29;19.87;;;13.23;;
23129;SDS011;11734;51.046;13.778;2023-05-20T05:52:56;19.30;;;12.57;;
23129;SDS011;11734;51.046;13.778;2023-05-20T05:55:23;16.50;;;12.00;;
23129;SDS011;11734;51.046;13.778;2023-05-20T05:57:52;20.80;;;13.33;;
23129;SDS011;11734;51.046;13.778;2023-05-20T06:00:20;21.10;;;13.90;;
23129;SDS011;11734;51.046;13.778;2023-05-20T06:02:47;18.50;;;12.73;;
23129;SDS011;11734;51.046;13.778;2023-05-20T06:05:30;18.97;;;13.50;;
23129;SDS011;11734;51.046;13.778;2023-05-20T06:07:58;18.30;;;13.70;;
23129;SDS011;11734;51.046;13.778;2023-05-20T06:10:25;20.57;;;13.87;;
23129;SDS011;11734;51.046;13.778;2023-05-20T06:12:53;17.30;;;12.73;;
23129;SDS011;11734;51.046;13.778;2023-05-20T06:15:21;18.73;;;13.17;;
23129;SDS011;11734;51.046;13.778;2023-05-20T06:17:48;18.87;;;13.13;;
23129;SDS011;11734;51.046;13.778;2023-05-20T06:20:15;17.47;;;12.53;;
23129;SDS011;11734;51.046;13.778;2023-05-20T06:22:42;18.77;;;13.37;;
23129;SDS011;11734;51.046;13.778;2023-05-20T06:25:10;21.10;;;12.80;;
23129;SDS011;11734;51.046;13.778;2023-05-20T06:27:39;19.20;;;13.90;;
23129;SDS011;11734;51.046;13.778;2023-05-20T06:30:09;18.57;;;13.83;;
23129;SDS011;11734;51.046;13.778;2023-05-20T06:32:37;17.47;;;13.10;;
23129;SDS011;11734;51.046;13.778;2023-05-20T06:35:04;18.67;;;13.63;;
23129;SDS011;11734;51.046;13.778;2023-05-20T06:37:32;19.27;;;13.27;;
23129;SDS011;11734;51.046;13.778;2023-05-20T06:39:59;19.43;;;13.73;;
23129;SDS011;11734;51.046;13.778;2023-05-20T06:42:26;19.47;;;13.30;;
23129;SDS011;11734;51.046;13.778;2023-05-20T06:45:03;21.03;;;12.87;;
23129;SDS011;11734;51.046;13.778;2023-05-20T06:48:00;19.87;;;13.20;;
23129;SDS011;11734;51.046;13.778;2023-05-20T06:50:27;17.40;;;12.40;;
23129;SDS011;11734;51.046;13.778;2023-05-20T06:52:54;18.00;;;12.47;;
23129;SDS011;11734;51.046;13.778;2023-05-20T06:55:22;16.97;;;12.33;;
23129;SDS011;11734;51.046;13.778;2023-05-20T06:57:49;17.53;;;12.83;;
23129;SDS011;11734;51.046;13.778;2023-05-20T07:00:17;19.27;;;13.37;;
23129;SDS011;11734;51.046;13.778;2023-05-20T07:02:44;18.30;;;13.33;;
23129;SDS011;11734;51.046;13.778;2023-05-20T07:05:13;16.77;;;12.20;;
23129;SDS011;11734;51.046;13.778;2023-05-20T07:07:40;17.47;;;12.80;;
23129;SDS011;11734;51.046;13.778;2023-05-20T07:10:07;19.57;;;13.40;;
23129;SDS011;11734;51.046;13.778;2023-05-20T07:12:35;16.37;;;12.73;;
23129;SDS011;11734;51.046;13.778;2023-05-20T07:15:03;17.53;;;12.17;;
23129;SDS011;11734;51.046;13.778;2023-05-20T07:17:31;15.30;;;11.53;;
23129;SDS011;11734;51.046;13.778;2023-05-20T07:19:59;18.30;;;12.87;;
23129;SDS011;11734;51.046;13.778;2023-05-20T07:22:28;18.17;;;12.70;;
23129;SDS011;11734;51.046;13.778;2023-05-20T07:25:06;15.50;;;11.87;;
23129;SDS011;11734;51.046;13.778;2023-05-20T07:27:35;17.43;;;12.53;;
23129;SDS011;11734;51.046;13.778;2023-05-20T07:30:02;17.40;;;12.37;;
23129;SDS011;11734;51.046;13.778;2023-05-20T07:32:32;18.67;;;12.17;;
23129;SDS011;11734;51.046;13.778;2023-05-20T07:34:59;17.77;;;13.23;;
23129;SDS011;11734;51.046;13.778;2023-05-20T07:37:27;18.50;;;12.60;;
23129;SDS011;11734;51.046;13.778;2023-05-20T07:39:54;16.67;;;13.40;;
23129;SDS011;11734;51.046;13.778;2023-05-20T07:42:21;19.17;;;12.70;;
23129;SDS011;11734;51.046;13.778;2023-05-20T07:44:54;15.73;;;11.10;;
23129;SDS011;11734;51.046;13.778;2023-05-20T07:47:21;14.83;;;12.20;;
23129;SDS011;11734;51.046;13.778;2023-05-20T07:49:48;15.77;;;12.23;;
23129;SDS011;11734;51.046;13.778;2023-05-20T07:52:15;17.13;;;12.37;;
23129;SDS011;11734;51.046;13.778;2023-05-20T07:54:43;16.63;;;11.57;;
23129;SDS011;11734;51.046;13.778;2023-05-20T07:57:11;13.73;;;11.17;;
23129;SDS011;11734;51.046;13.778;2023-05-20T07:59:42;15.57;;;11.50;;
23129;SDS011;11734;51.046;13.778;2023-05-20T08:02:11;15.53;;;11.23;;
23129;SDS011;11734;51.046;13.778;2023-05-20T08:04:39;13.97;;;11.03;;
23129;SDS011;11734;51.046;13.778;2023-05-20T08:07:07;15.90;;;11.60;;
23129;SDS011;11734;51.046;13.778;2023-05-20T08:09:45;15.67;;;12.07;;
23129;SDS011;11734;51.046;13.778;2023-05-20T08:12:13;14.27;;;11.47;;
23129;SDS011;11734;51.046;13.778;2023-05-20T08:14:40;13.67;;;11.17;;
23129;SDS011;11734;51.046;13.778;2023-05-20T08:17:09;15.40;;;11.50;;
23129;SDS011;11734;51.046;13.778;2023-05-20T08:19:36;16.13;;;11.23;;
23129;SDS011;11734;51.046;13.778;2023-05-20T08:22:04;14.97;;;10.50;;
23129;SDS011;11734;51.046;13.778;2023-05-20T08:24:32;14.90;;;11.57;;
23129;SDS011;11734;51.046;13.778;2023-05-20T08:27:00;14.13;;;11.03;;
23129;SDS011;11734;51.046;13.778;2023-05-20T08:29:27;13.87;;;10.67;;
23129;SDS011;11734;51.046;13.778;2023-05-20T08:31:56;14.13;;;10.80;;
23129;SDS011;11734;51.046;13.778;2023-05-20T08:34:25;14.57;;;10.80;;
23129;SDS011;11734;51.046;13.778;2023-05-20T08:36:52;13.63;;;10.60;;
23129;SDS011;11734;51.046;13.778;2023-05-20T08:39:20;12.60;;;10.80;;
23129;SDS011;11734;51.046;13.778;2023-05-20T08:41:48;11.60;;;9.83;;
23129;SDS011;11734;51.046;13.778;2023-05-20T08:44:16;16.00;;;10.93;;
23129;SDS011;11734;51.046;13.778;2023-05-20T08:46:45;12.50;;;9.90;;
23129;SDS011;11734;51.046;13.778;2023-05-20T08:49:13;15.03;;;11.30;;
23129;SDS011;11734;51.046;13.778;2023-05-20T08:51:40;13.63;;;10.93;;
23129;SDS011;11734;51.046;13.778;2023-05-20T08:54:08;17.10;;;11.17;;
23129;SDS011;11734;51.046;13.778;2023-05-20T08:56:37;14.27;;;10.23;;
23129;SDS011;11734;51.046;13.778;2023-05-20T08:59:07;15.80;;;11.33;;
23129;SDS011;11734;51.046;13.778;2023-05-20T09:01:36;12.67;;;9.80;;
23129;SDS011;11734;51.046;13.778;2023-05-20T09:04:05;13.67;;;10.67;;
23129;SDS011;11734;51.046;13.778;2023-05-20T09:06:43;15.57;;;10.67;;
23129;SDS011;11734;51.046;13.778;2023-05-20T09:09:11;13.40;;;10.30;;
23129;SDS011;11734;51.046;13.778;2023-05-20T09:11:39;12.20;;;9.53;;
23129;SDS011;11734;51.046;13.778;2023-05-20T09:14:07;15.10;;;10.30;;
23129;SDS011;11734;51.046;13.778;2023-05-20T09:16:34;14.17;;;10.13;;
23129;SDS011;11734;51.046;13.778;2023-05-20T09:19:04;14.03;;;9.80;;
23129;SDS011;11734;51.046;13.778;2023-05-20T09:21:32;13.97;;;9.60;;
23129;SDS011;11734;51.046;13.778;2023-05-20T09:24:02;13.00;;;10.57;;
23129;SDS011;11734;51.046;13.778;2023-05-20T09:26:29;13.37;;;9.93;;
23129;SDS011;11734;51.046;13.778;2023-05-20T09:28:58;13.47;;;9.30;;
23129;SDS011;11734;51.046;13.778;2023-05-20T09:31:26;11.77;;;8.93;;
23129;SDS011;11734;51.046;13.778;2023-05-20T09:33:54;12.27;;;9.67;;
23129;SDS011;11734;51.046;13.778;2023-05-20T09:36:22;14.33;;;10.03;;
23129;SDS011;11734;51.046;13.778;2023-05-20T09:38:52;13.90;;;10.00;;
23129;SDS011;11734;51.046;13.778;2023-05-20T09:41:22;11.63;;;9.37;;
23129;SDS011;11734;51.046;13.778;2023-05-20T09:43:51;10.80;;;9.03;;
23129;SDS011;11734;51.046;13.778;2023-05-20T09:46:18;13.93;;;9.87;;
23129;SDS011;11734;51.046;13.778;2023-05-20T09:48:46;12.53;;;9.50;;
23129;SDS011;11734;51.046;13.778;2023-05-20T09:51:14;14.00;;;10.17;;
23129;SDS011;11734;51.046;13.778;2023-05-20T09:53:42;14.23;;;10.10;;
23129;SDS011;11734;51.046;13.778;2023-05-20T09:56:09;15.03;;;9.50;;
23129;SDS011;11734;51.046;13.778;2023-05-20T09:58:37;11.80;;;10.20;;
23129;SDS011;11734;51.046;13.778;2023-05-20T10:01:05;13.17;;;9.83;;
23129;SDS011;11734;51.046;13.778;2023-05-20T10:03:33;13.97;;;9.83;;
23129;SDS011;11734;51.046;13.778;2023-05-20T10:21:23;12.53;;;10.03;;
23129;SDS011;11734;51.046;13.778;2023-05-20T10:23:52;15.53;;;10.30;;
23129;SDS011;11734;51.046;13.778;2023-05-20T10:26:20;11.23;;;8.77;;
23129;SDS011;11734;51.046;13.778;2023-05-20T10:28:47;11.83;;;8.47;;
23129;SDS011;11734;51.046;13.778;2023-05-20T10:33:43;14.07;;;9.80;;
23129;SDS011;11734;51.046;13.778;2023-05-20T10:36:27;12.47;;;9.63;;
23129;SDS011;11734;51.046;13.778;2023-05-20T10:38:59;11.10;;;8.67;;
23129;SDS011;11734;51.046;13.778;2023-05-20T10:41:27;12.30;;;9.27;;
23129;SDS011;11734;51.046;13.778;2023-05-20T10:43:58;10.90;;;8.40;;
23129;SDS011;11734;51.046;13.778;2023-05-20T10:46:27;11.63;;;8.23;;
23129;SDS011;11734;51.046;13.778;2023-05-20T10:49:17;12.03;;;8.57;;
23129;SDS011;11734;51.046;13.778;2023-05-20T10:51:49;11.17;;;8.50;;
23129;SDS011;11734;51.046;13.778;2023-05-20T10:54:17;13.20;;;9.40;;
23129;SDS011;11734;51.046;13.778;2023-05-20T10:56:51;10.93;;;8.20;;
23129;SDS011;11734;51.046;13.778;2023-05-20T10:59:19;12.20;;;9.43;;
23129;SDS011;11734;51.046;13.778;2023-05-20T11:01:50;11.93;;;8.93;;
23129;SDS011;11734;51.046;13.778;2023-05-20T11:04:20;12.97;;;9.87;;
23129;SDS011;11734;51.046;13.778;2023-05-20T11:06:51;11.53;;;8.43;;
23129;SDS011;11734;51.046;13.778;2023-05-20T11:09:19;12.63;;;9.33;;
23129;SDS011;11734;51.046;13.778;2023-05-20T11:11:47;10.30;;;8.57;;
23129;SDS011;11734;51.046;13.778;2023-05-20T11:14:15;12.27;;;8.63;;
23129;SDS011;11734;51.046;13.778;2023-05-20T11:16:44;11.57;;;9.37;;
23129;SDS011;11734;51.046;13.778;2023-05-20T11:19:15;10.70;;;8.47;;
23129;SDS011;11734;51.046;13.778;2023-05-20T11:21:44;11.67;;;8.67;;
23129;SDS011;11734;51.046;13.778;2023-05-20T11:24:12;11.13;;;9.07;;
23129;SDS011;11734;51.046;13.778;2023-05-20T11:26:39;9.60;;;8.13;;
23129;SDS011;11734;51.046;13.778;2023-05-20T11:29:07;11.43;;;8.63;;
23129;SDS011;11734;51.046;13.778;2023-05-20T11:31:36;8.97;;;7.30;;
23129;SDS011;11734;51.046;13.778;2023-05-20T11:34:06;9.83;;;8.00;;
23129;SDS011;11734;51.046;13.778;2023-05-20T11:36:33;12.17;;;9.30;;
23129;SDS011;11734;51.046;13.778;2023-05-20T11:39:01;10.70;;;8.27;;
23129;SDS011;11734;51.046;13.778;2023-05-20T11:41:30;10.97;;;8.53;;
23129;SDS011;11734;51.046;13.778;2023-05-20T11:43:58;11.87;;;8.93;;
23129;SDS011;11734;51.046;13.778;2023-05-20T11:46:26;10.97;;;8.63;;
23129;SDS011;11734;51.046;13.778;2023-05-20T11:48:54;10.50;;;8.20;;
23129;SDS011;11734;51.046;13.778;2023-05-20T11:51:28;11.73;;;8.80;;
23129;SDS011;11734;51.046;13.778;2023-05-20T11:54:05;10.70;;;8.47;;
23129;SDS011;11734;51.046;13.778;2023-05-20T11:56:33;11.27;;;8.50;;
23129;SDS011;11734;51.046;13.778;2023-05-20T11:59:03;10.60;;;8.40;;
23129;SDS011;11734;51.046;13.778;2023-05-20T12:01:34;11.00;;;8.30;;
23129;SDS011;11734;51.046;13.778;2023-05-20T12:04:11;10.63;;;8.00;;
23129;SDS011;11734;51.046;13.778;2023-05-20T12:06:40;10.57;;;8.50;;
23129;SDS011;11734;51.046;13.778;2023-05-20T12:09:11;10.10;;;7.80;;
23129;SDS011;11734;51.046;13.778;2023-05-20T12:11:39;10.33;;;7.23;;
23129;SDS011;11734;51.046;13.778;2023-05-20T12:14:07;12.20;;;9.37;;
23129;SDS011;11734;51.046;13.778;2023-05-20T12:16:35;8.90;;;7.60;;
23129;SDS011;11734;51.046;13.778;2023-05-20T12:19:03;9.97;;;8.13;;
23129;SDS011;11734;51.046;13.778;2023-05-20T12:21:31;10.73;;;7.77;;
23129;SDS011;11734;51.046;13.778;2023-05-20T12:23:58;10.60;;;8.37;;
23129;SDS011;11734;51.046;13.778;2023-05-20T12:26:27;10.27;;;8.53;;
23129;SDS011;11734;51.046;13.778;2023-05-20T12:28:54;11.67;;;8.67;;
23129;SDS011;11734;51.046;13.778;2023-05-20T12:31:22;11.73;;;8.07;;
23129;SDS011;11734;51.046;13.778;2023-05-20T12:33:49;9.67;;;8.00;;
23129;SDS011;11734;51.046;13.778;2023-05-20T12:36:17;10.30;;;8.23;;
23129;SDS011;11734;51.046;13.778;2023-05-20T12:38:45;10.53;;;8.50;;
23129;SDS011;11734;51.046;13.778;2023-05-20T12:41:12;9.47;;;7.87;;
23129;SDS011;11734;51.046;13.778;2023-05-20T12:43:40;10.83;;;8.43;;
23129;SDS011;11734;51.046;13.778;2023-05-20T12:46:07;10.50;;;8.20;;
23129;SDS011;11734;51.046;13.778;2023-05-20T12:48:34;9.50;;;7.87;;
23129;SDS011;11734;51.046;13.778;2023-05-20T12:51:02;9.70;;;7.93;;
23129;SDS011;11734;51.046;13.778;2023-05-20T12:53:29;10.87;;;8.47;;
23129;SDS011;11734;51.046;13.778;2023-05-20T12:55:57;7.93;;;7.07;;
23129;SDS011;11734;51.046;13.778;2023-05-20T12:58:24;11.10;;;8.77;;
23129;SDS011;11734;51.046;13.778;2023-05-20T13:00:51;9.77;;;8.37;;
23129;SDS011;11734;51.046;13.778;2023-05-20T13:03:19;12.27;;;8.00;;
23129;SDS011;11734;51.046;13.778;2023-05-20T13:05:46;11.57;;;8.47;;
23129;SDS011;11734;51.046;13.778;2023-05-20T13:08:14;9.97;;;8.20;;
23129;SDS011;11734;51.046;13.778;2023-05-20T13:10:41;11.13;;;8.53;;
23129;SDS011;11734;51.046;13.778;2023-05-20T13:13:08;11.17;;;8.97;;
23129;SDS011;11734;51.046;13.778;2023-05-20T13:15:36;11.43;;;9.50;;
23129;SDS011;11734;51.046;13.778;2023-05-20T13:18:03;12.13;;;8.47;;
23129;SDS011;11734;51.046;13.778;2023-05-20T13:20:32;11.67;;;8.77;;
23129;SDS011;11734;51.046;13.778;2023-05-20T13:23:00;12.83;;;8.90;;
23129;SDS011;11734;51.046;13.778;2023-05-20T13:25:28;12.70;;;8.77;;
23129;SDS011;11734;51.046;13.778;2023-05-20T13:27:57;11.40;;;9.20;;
23129;SDS011;11734;51.046;13.778;2023-05-20T13:30:24;8.90;;;6.77;;
23129;SDS011;11734;51.046;13.778;2023-05-20T13:32:53;10.27;;;8.20;;
23129;SDS011;11734;51.046;13.778;2023-05-20T13:35:21;9.90;;;7.83;;
23129;SDS011;11734;51.046;13.778;2023-05-20T13:37:48;10.17;;;8.10;;
23129;SDS011;11734;51.046;13.778;2023-05-20T13:40:15;9.73;;;7.87;;
23129;SDS011;11734;51.046;13.778;2023-05-20T13:42:43;9.77;;;8.53;;
23129;SDS011;11734;51.046;13.778;2023-05-20T13:45:10;9.03;;;7.20;;
23129;SDS011;11734;51.046;13.778;2023-05-20T13:47:37;8.47;;;7.57;;
23129;SDS011;11734;51.046;13.778;2023-05-20T13:50:05;9.97;;;7.23;;
23129;SDS011;11734;51.046;13.778;2023-05-20T13:52:33;9.53;;;7.40;;
23129;SDS011;11734;51.046;13.778;2023-05-20T13:55:00;9.90;;;7.67;;
23129;SDS011;11734;51.046;13.778;2023-05-20T13:57:27;9.97;;;7.63;;
23129;SDS011;11734;51.046;13.778;2023-05-20T13:59:55;10.13;;;7.63;;
23129;SDS011;11734;51.046;13.778;2023-05-20T14:02:22;8.03;;;7.23;;
23129;SDS011;11734;51.046;13.778;2023-05-20T14:04:49;10.10;;;7.83;;
23129;SDS011;11734;51.046;13.778;2023-05-20T14:07:17;10.07;;;8.13;;
23129;SDS011;11734;51.046;13.778;2023-05-20T14:09:44;11.80;;;8.40;;
23129;SDS011;11734;51.046;13.778;2023-05-20T14:12:11;11.93;;;8.40;;
23129;SDS011;11734;51.046;13.778;2023-05-20T14:14:39;9.73;;;8.17;;
23129;SDS011;11734;51.046;13.778;2023-05-20T14:17:06;11.20;;;8.83;;
23129;SDS011;11734;51.046;13.778;2023-05-20T14:19:33;10.40;;;8.00;;
23129;SDS011;11734;51.046;13.778;2023-05-20T14:22:01;10.40;;;8.03;;
23129;SDS011;11734;51.046;13.778;2023-05-20T14:24:29;10.10;;;8.47;;
23129;SDS011;11734;51.046;13.778;2023-05-20T14:26:56;11.93;;;8.77;;
23129;SDS011;11734;51.046;13.778;2023-05-20T14:29:24;10.90;;;7.93;;
23129;SDS011;11734;51.046;13.778;2023-05-20T14:31:51;10.50;;;8.67;;
23129;SDS011;11734;51.046;13.778;2023-05-20T14:34:20;10.73;;;8.30;;
23129;SDS011;11734;51.046;13.778;2023-05-20T14:36:48;11.10;;;9.30;;